Agoura Hills, California
Current Conditions -  °F | °C
As of 7:51 PM on Thursday 27 Nov 2014 (Local Time) from KVNY Reporting Station
Clear Clear  
Wind Chill: 66°   Ceiling: Unl
Heat Index: 66°   Visibility: 10mi
Dew Point: 32°   Wind: 5mph
Humidity: 28%   Direction: 350°N
Pressure: 30.03"   Gusts: NA
Location:  34.15°N, 118.77°W
Report Text: KVNY 280351Z 35004KT 10SM CLR 19/00 A3003 RMK AO2 SLP166 T01890000
Loading
Personal Weather Stations






























Interactive Weather Map New forecast layout! Learn more

10-Day Weather Forecast

Advertisements
Track Severe Weather on mobile